Yangliuqing, China
Current Conditions -  °F | °C
As of 10:00 PM on Thursday 18 Dec 2014 (Local Time) from ZBTJ Reporting Station
Haze Haze  
Wind Chill: 30°   Ceiling: Unl
Heat Index: 30°   Visibility: 1.2mi
Dew Point: 23°   Wind: 2mph
Humidity: 75%   Direction: 320°NW
Pressure: 30.24"   Gusts: NA
Location:  39.13°N, 116.99°E
Report Text: ZBTJ 181400Z 32001MPS 2000 HZ NSC M01/M05 Q1024 NOSIG
Loading
Personal Weather Stations






























Interactive Weather Map New forecast layout! Learn more

10-Day Weather Forecast

Advertisements
Track Severe Weather on mobile